createdAt,value
2022-12-18T00:01:32.300Z,56944.78
2022-12-18T00:03:59.234Z,56951.00
2022-12-18T00:06:27.947Z,56948.94
2022-12-18T00:08:56.046Z,56948.94
2022-12-18T00:11:25.131Z,56901.34
2022-12-18T00:13:52.372Z,56951.00
2022-12-18T00:16:21.789Z,56922.03
2022-12-18T00:18:50.142Z,56955.13
2022-12-18T00:21:17.067Z,56986.19
2022-12-18T00:23:44.916Z,56969.63
2022-12-18T00:26:13.946Z,56951.00
2022-12-18T00:28:40.527Z,56969.63
2022-12-18T00:31:09.428Z,56998.59
2022-12-18T00:33:36.939Z,57025.50
2022-12-18T00:36:10.734Z,56959.28
2022-12-18T00:38:38.041Z,56990.31
2022-12-18T00:41:05.383Z,56938.59
2022-12-18T00:43:35.389Z,56944.78
2022-12-18T00:46:02.240Z,56924.09
2022-12-18T00:48:28.763Z,56940.66
2022-12-18T00:50:55.235Z,56936.50
2022-12-18T00:53:21.730Z,56932.38
2022-12-18T00:55:50.572Z,56903.41
2022-12-18T00:58:17.883Z,56957.22
2022-12-18T01:00:44.406Z,56951.00
2022-12-18T01:03:14.350Z,56967.56
2022-12-18T01:05:42.346Z,56777.19
2022-12-18T01:08:09.086Z,56967.56
2022-12-18T01:10:35.685Z,56961.34
2022-12-18T01:13:02.102Z,56913.75
2022-12-18T01:15:28.482Z,56977.91
2022-12-18T01:17:54.959Z,56957.22
2022-12-18T01:20:21.750Z,56953.06
2022-12-18T01:22:48.214Z,56944.78
2022-12-18T01:25:14.631Z,56919.97
2022-12-18T01:27:41.065Z,56895.13
2022-12-18T01:30:08.130Z,56926.16
2022-12-18T01:32:34.550Z,56917.88
2022-12-18T01:35:01.040Z,56946.84
2022-12-18T01:37:27.670Z,56922.03
2022-12-18T01:39:55.237Z,57029.63
2022-12-18T01:42:22.089Z,56913.75
2022-12-18T01:44:59.311Z,57203.44
2022-12-18T01:47:54.338Z,56957.22
2022-12-18T01:50:23.514Z,56901.34
2022-12-18T01:52:55.866Z,56905.47
2022-12-18T01:55:25.350Z,56946.84
2022-12-18T01:57:55.207Z,56948.94
2022-12-18T02:00:23.595Z,56899.25
2022-12-18T02:02:50.329Z,57100.00
2022-12-18T02:05:20.052Z,56888.91
2022-12-18T02:07:58.778Z,56926.16
2022-12-18T02:10:38.839Z,56934.44
2022-12-18T02:13:08.291Z,56951.00
2022-12-18T02:15:45.201Z,56913.75
2022-12-18T02:18:16.975Z,56936.50
2022-12-18T02:20:45.285Z,56938.59
2022-12-18T02:23:43.261Z,56936.50
2022-12-18T02:26:31.850Z,56946.84
2022-12-18T02:29:40.476Z,56967.56
2022-12-18T02:32:10.571Z,56944.78
2022-12-18T02:34:39.611Z,56880.66
2022-12-18T02:37:10.395Z,56938.59
2022-12-18T02:39:38.455Z,56938.59
2022-12-18T02:42:08.795Z,56911.69
2022-12-18T02:44:37.041Z,56948.94
2022-12-18T02:47:03.582Z,56922.03
2022-12-18T02:49:40.197Z,56884.78
2022-12-18T02:52:09.573Z,56959.28
2022-12-18T02:55:06.905Z,56955.13
2022-12-18T02:57:43.021Z,56934.44
2022-12-18T03:00:19.685Z,56967.56
2022-12-18T03:02:55.633Z,56946.84
2022-12-18T03:05:31.593Z,56953.06
2022-12-18T03:08:03.092Z,56951.00
2022-12-18T03:10:33.202Z,57137.22
2022-12-18T03:13:04.937Z,56944.78
2022-12-18T03:15:45.355Z,56934.44
2022-12-18T03:18:22.558Z,56922.03
2022-12-18T03:20:50.361Z,56928.25
2022-12-18T03:23:20.761Z,56942.72
2022-12-18T03:25:50.746Z,56917.88
2022-12-18T03:28:21.956Z,56944.78
2022-12-18T03:30:52.995Z,56971.69
2022-12-18T03:33:25.158Z,57182.75
2022-12-18T03:35:51.620Z,56948.94
2022-12-18T03:38:18.196Z,56851.69
2022-12-18T03:41:02.713Z,56911.69
2022-12-18T03:43:36.670Z,56936.50
2022-12-18T03:46:14.476Z,56959.28
2022-12-18T03:48:47.860Z,56934.44
2022-12-18T03:51:55.593Z,56942.72
2022-12-18T03:54:22.823Z,56922.03
2022-12-18T03:56:54.708Z,56915.81
2022-12-18T03:59:21.951Z,56917.88
2022-12-18T04:01:50.525Z,57025.50
2022-12-18T04:04:18.792Z,56942.72
2022-12-18T04:06:48.954Z,56911.69
2022-12-18T04:09:15.523Z,56948.94
2022-12-18T04:11:44.667Z,56911.69
2022-12-18T04:14:17.382Z,56884.78
2022-12-18T04:16:44.573Z,57000.66
2022-12-18T04:19:11.148Z,56891.00
2022-12-18T04:21:38.033Z,57095.84
2022-12-18T04:24:04.603Z,56944.78
2022-12-18T04:26:31.001Z,56932.38
2022-12-18T04:28:57.567Z,56936.50
2022-12-18T04:31:24.004Z,56926.16
2022-12-18T04:33:50.424Z,56893.06
2022-12-18T04:36:16.867Z,56907.53
2022-12-18T04:38:43.303Z,56913.75
2022-12-18T04:41:09.710Z,56936.50
2022-12-18T04:43:36.556Z,56959.28
2022-12-18T04:46:04.970Z,56934.44
2022-12-18T04:48:31.460Z,56938.59
2022-12-18T04:50:57.893Z,56973.75
2022-12-18T04:53:24.684Z,56911.69
2022-12-18T04:55:51.129Z,56955.13
2022-12-18T04:58:17.771Z,56903.41
2022-12-18T05:00:44.483Z,56897.19
2022-12-18T05:03:11.123Z,56919.97
2022-12-18T05:05:37.545Z,56922.03
2022-12-18T05:08:04.143Z,56903.41
2022-12-18T05:10:37.547Z,56901.34
2022-12-18T05:13:04.616Z,56888.91
2022-12-18T05:15:32.713Z,56951.00
2022-12-18T05:17:59.662Z,56911.69
2022-12-18T05:20:27.589Z,56911.69
2022-12-18T05:22:54.449Z,56901.34
2022-12-18T05:25:21.585Z,56942.72
2022-12-18T05:27:48.188Z,56934.44
2022-12-18T05:30:15.342Z,56897.19
2022-12-18T05:32:42.008Z,57168.28
2022-12-18T05:35:10.064Z,56934.44
2022-12-18T05:37:42.527Z,56919.97
2022-12-18T05:40:10.262Z,56911.69
2022-12-18T05:42:36.743Z,56907.53
2022-12-18T05:45:04.684Z,57087.56
2022-12-18T05:47:31.180Z,56847.53
2022-12-18T05:49:57.811Z,56942.72
2022-12-18T05:52:24.418Z,56899.25
2022-12-18T05:54:50.871Z,56957.22
2022-12-18T05:57:17.302Z,56926.16
2022-12-18T05:59:43.864Z,56942.72
2022-12-18T06:02:10.420Z,57160.00
2022-12-18T06:04:37.084Z,56919.97
2022-12-18T06:07:04.312Z,56944.78
2022-12-18T06:09:30.702Z,56888.91
2022-12-18T06:11:57.158Z,56928.25
2022-12-18T06:14:23.667Z,56895.13
2022-12-18T06:16:52.835Z,56913.75
2022-12-18T06:19:19.302Z,56932.38
2022-12-18T06:21:46.424Z,56959.28
2022-12-18T06:24:12.810Z,56942.72
2022-12-18T06:26:39.888Z,56967.56
2022-12-18T06:29:06.762Z,57201.38
2022-12-18T06:31:33.438Z,57197.25
2022-12-18T06:33:59.979Z,56928.25
2022-12-18T06:36:27.012Z,56946.84
2022-12-18T06:38:53.377Z,56946.84
2022-12-18T06:41:21.653Z,57110.34
2022-12-18T06:43:48.165Z,56971.69
2022-12-18T06:46:14.796Z,56882.72
2022-12-18T06:48:41.419Z,56946.84
2022-12-18T06:51:07.918Z,56917.88
2022-12-18T06:53:34.469Z,56924.09
2022-12-18T06:56:07.876Z,56948.94
2022-12-18T06:58:36.203Z,56926.16
2022-12-18T07:01:04.965Z,56928.25
2022-12-18T07:03:31.892Z,56942.72
2022-12-18T07:05:58.420Z,57157.94
2022-12-18T07:08:25.623Z,57153.78
2022-12-18T07:10:56.052Z,56938.59
2022-12-18T07:13:23.076Z,56944.78
2022-12-18T07:15:49.544Z,56957.22
2022-12-18T07:18:16.045Z,56951.00
2022-12-18T07:20:42.471Z,56930.31
2022-12-18T07:23:11.677Z,56899.25
2022-12-18T07:25:38.358Z,57176.56
2022-12-18T07:28:05.319Z,56911.69
2022-12-18T07:30:31.858Z,56938.59
2022-12-18T07:32:58.337Z,56926.16
2022-12-18T07:35:25.348Z,56934.44
2022-12-18T07:37:52.168Z,56922.03
2022-12-18T07:40:18.617Z,57027.56
2022-12-18T07:42:45.363Z,56922.03
2022-12-18T07:45:11.867Z,56826.84
2022-12-18T07:47:38.830Z,56944.78
2022-12-18T07:50:06.239Z,56934.44
2022-12-18T07:52:32.666Z,56926.16
2022-12-18T07:54:59.706Z,57168.28
2022-12-18T08:00:13.235Z,56901.34
2022-12-18T08:02:39.881Z,56913.75
2022-12-18T08:05:06.541Z,56946.84
2022-12-18T08:07:33.625Z,56942.72
2022-12-18T08:10:00.040Z,56946.84
2022-12-18T08:12:26.435Z,56934.44
2022-12-18T08:14:52.924Z,56988.25
2022-12-18T08:17:20.729Z,56975.81
2022-12-18T08:19:47.167Z,57120.69
2022-12-18T08:22:13.587Z,56963.41
2022-12-18T08:24:40.485Z,57000.66
2022-12-18T08:27:28.278Z,57242.78
2022-12-18T08:29:56.185Z,56940.66
2022-12-18T08:32:22.605Z,56971.69
2022-12-18T08:34:49.021Z,56868.22
2022-12-18T08:37:15.958Z,56936.50
2022-12-18T08:39:42.585Z,56969.63
2022-12-18T08:42:27.770Z,57021.34
2022-12-18T08:44:54.148Z,56977.91
2022-12-18T08:47:20.528Z,57042.03
2022-12-18T08:49:46.984Z,57025.50
2022-12-18T08:52:16.180Z,57035.84
2022-12-18T08:54:42.571Z,56965.47
2022-12-18T08:57:08.982Z,57017.22
2022-12-18T08:59:35.696Z,56944.78
2022-12-18T09:02:02.264Z,57042.03
2022-12-18T09:04:28.887Z,57066.88
2022-12-18T09:06:55.305Z,57064.81
2022-12-18T09:09:22.096Z,57075.16
2022-12-18T09:11:48.504Z,57346.25
2022-12-18T09:14:14.907Z,57106.19
2022-12-18T09:16:41.388Z,57110.34
2022-12-18T09:19:07.887Z,57079.28
2022-12-18T09:21:42.134Z,57112.41
2022-12-18T09:24:17.175Z,57095.84
2022-12-18T09:26:47.035Z,57087.56
2022-12-18T09:29:15.423Z,57100.00
2022-12-18T09:31:42.755Z,57137.22
2022-12-18T09:34:09.155Z,57120.69
2022-12-18T09:36:38.705Z,57122.75
2022-12-18T09:39:08.584Z,57182.75
2022-12-18T09:41:54.512Z,57087.56
2022-12-18T09:44:24.924Z,57162.06
2022-12-18T09:47:25.108Z,57191.03
2022-12-18T09:49:54.730Z,57195.19
2022-12-18T09:52:44.588Z,57211.72
2022-12-18T09:55:20.078Z,57255.19
2022-12-18T09:57:54.354Z,57406.25
2022-12-18T10:00:23.055Z,57265.53
2022-12-18T10:02:52.068Z,57207.59
2022-12-18T10:05:30.258Z,57366.94
2022-12-18T10:08:06.014Z,57292.44
2022-12-18T10:10:47.816Z,57282.09
2022-12-18T10:13:27.562Z,57261.41
2022-12-18T10:16:03.138Z,57317.28
2022-12-18T10:18:43.440Z,57387.63
2022-12-18T10:21:20.045Z,57296.56
2022-12-18T10:23:58.146Z,57277.94
2022-12-18T10:26:25.272Z,57344.16
2022-12-18T10:28:52.313Z,57331.75
2022-12-18T10:31:24.544Z,57348.31
2022-12-18T10:33:52.127Z,57362.78
2022-12-18T10:36:18.582Z,57385.56
2022-12-18T10:38:45.145Z,57319.34
2022-12-18T10:41:26.749Z,57369.00
2022-12-18T10:44:23.774Z,57395.91
2022-12-18T10:47:07.474Z,57375.22
2022-12-18T10:49:41.083Z,57360.72
2022-12-18T10:52:19.679Z,57412.47
2022-12-18T10:54:54.469Z,57352.44
2022-12-18T10:57:27.017Z,57435.22
2022-12-18T10:59:56.457Z,57356.59
2022-12-18T11:02:29.935Z,57362.78
2022-12-18T11:04:56.617Z,57389.69
2022-12-18T11:07:23.061Z,57364.88
2022-12-18T11:10:04.403Z,57466.28
2022-12-18T11:12:30.973Z,57416.59
2022-12-18T11:14:58.667Z,57602.88
2022-12-18T11:17:35.751Z,57429.03
2022-12-18T11:20:05.336Z,57443.50
2022-12-18T11:22:34.489Z,57654.59
2022-12-18T11:25:30.942Z,57395.91
2022-12-18T11:27:54.539Z,57418.66
2022-12-18T11:30:20.907Z,57484.91
2022-12-18T11:32:50.028Z,57426.94
2022-12-18T11:35:16.856Z,57507.66
2022-12-18T11:37:48.471Z,57451.78
2022-12-18T11:40:23.916Z,57476.63
2022-12-18T11:42:59.698Z,57480.75
2022-12-18T11:45:32.498Z,57633.91
2022-12-18T11:48:06.617Z,57480.75
2022-12-18T11:50:52.436Z,57484.91
2022-12-18T11:53:19.223Z,57518.00
2022-12-18T11:56:07.107Z,57476.63
2022-12-18T11:58:50.441Z,57493.19
2022-12-18T12:01:32.571Z,57472.47
2022-12-18T12:04:05.784Z,57546.97
2022-12-18T12:06:45.918Z,57476.63
2022-12-18T12:09:33.645Z,57495.25
2022-12-18T12:12:29.493Z,57507.66
2022-12-18T12:15:07.881Z,57513.88
2022-12-18T12:17:34.214Z,57497.31
2022-12-18T12:20:19.310Z,57503.53
2022-12-18T12:23:07.063Z,57509.72
2022-12-18T12:25:50.567Z,57515.94
2022-12-18T12:28:39.808Z,57489.03
2022-12-18T12:31:28.199Z,57520.09
2022-12-18T12:34:14.905Z,57464.19
2022-12-18T12:36:57.290Z,57509.72
2022-12-18T12:39:29.445Z,57509.72
2022-12-18T12:42:14.350Z,57513.88
2022-12-18T12:44:45.266Z,57513.88
2022-12-18T12:47:18.654Z,57534.56
2022-12-18T12:49:48.422Z,57509.72
2022-12-18T12:52:24.747Z,57520.09
2022-12-18T12:54:52.116Z,57499.38
2022-12-18T12:57:24.568Z,57486.97
2022-12-18T13:00:00.496Z,57518.00
2022-12-18T13:02:34.730Z,57495.25
2022-12-18T13:05:33.193Z,57460.06
2022-12-18T13:08:23.338Z,57418.66
2022-12-18T13:10:50.705Z,57642.19
2022-12-18T13:13:18.704Z,57528.34
2022-12-18T13:16:08.611Z,57546.97
2022-12-18T13:18:35.396Z,57555.25
2022-12-18T13:21:03.790Z,57555.25
2022-12-18T13:23:40.747Z,57534.56
2022-12-18T13:26:07.503Z,57557.34
2022-12-18T13:28:33.804Z,57575.97
2022-12-18T13:31:01.953Z,57555.25
2022-12-18T13:34:16.400Z,57571.81
2022-12-18T13:36:33.535Z,57518.00
2022-12-18T13:39:19.701Z,57546.97
2022-12-18T13:41:55.038Z,57563.53
2022-12-18T13:44:39.957Z,57557.34
2022-12-18T13:47:25.699Z,57559.41
2022-12-18T13:49:52.346Z,57567.69
2022-12-18T13:52:24.859Z,57580.09
2022-12-18T13:54:59.013Z,57571.81
2022-12-18T13:57:30.061Z,57569.75
2022-12-18T13:59:56.933Z,57544.91
2022-12-18T14:02:25.546Z,57573.88
2022-12-18T14:04:53.342Z,57544.91
2022-12-18T14:07:30.596Z,57569.75
2022-12-18T14:10:18.679Z,57534.56
2022-12-18T14:13:00.706Z,57578.03
2022-12-18T14:15:32.754Z,57542.84
2022-12-18T14:18:10.644Z,57561.47
2022-12-18T14:20:37.907Z,57569.75
2022-12-18T14:23:04.339Z,57544.91
2022-12-18T14:25:31.872Z,57571.81
2022-12-18T14:28:08.617Z,57538.72
2022-12-18T14:30:40.526Z,57588.38
2022-12-18T14:33:10.348Z,57584.25
2022-12-18T14:35:39.340Z,57534.56
2022-12-18T14:38:27.104Z,57573.88
2022-12-18T14:40:55.199Z,57563.53
2022-12-18T14:43:22.217Z,57540.78
2022-12-18T14:45:50.486Z,57553.19
2022-12-18T14:48:24.200Z,57538.72
2022-12-18T14:51:07.182Z,57557.34
2022-12-18T14:53:54.933Z,57573.88
2022-12-18T14:56:27.539Z,57592.50
2022-12-18T14:59:02.319Z,57762.22
2022-12-18T15:01:39.831Z,57542.84
2022-12-18T15:04:25.885Z,57729.09
2022-12-18T15:07:23.527Z,57499.38
2022-12-18T15:10:23.085Z,57542.84
2022-12-18T15:12:49.592Z,57586.31
2022-12-18T15:15:34.643Z,57569.75
2022-12-18T15:18:04.696Z,57511.81
2022-12-18T15:20:33.150Z,57495.25
2022-12-18T15:22:59.522Z,57493.19
2022-12-18T15:25:44.096Z,57486.97
2022-12-18T15:28:20.967Z,57526.28
2022-12-18T15:31:05.925Z,57505.59
2022-12-18T15:33:35.243Z,57518.00
2022-12-18T15:36:08.817Z,57530.44
2022-12-18T15:38:35.329Z,57557.34
2022-12-18T15:41:01.743Z,57555.25
2022-12-18T15:43:37.855Z,57522.16
2022-12-18T15:46:15.854Z,57534.56
2022-12-18T15:48:44.401Z,57540.78
2022-12-18T15:51:35.832Z,57559.41
2022-12-18T15:54:04.770Z,57518.00
2022-12-18T15:56:50.406Z,57536.63
2022-12-18T15:59:19.351Z,57511.81
2022-12-18T16:01:48.295Z,57505.59
2022-12-18T16:04:17.078Z,57482.81
2022-12-18T16:07:12.815Z,57592.50
2022-12-18T16:09:30.345Z,57530.44
2022-12-18T16:11:56.795Z,57505.59
2022-12-18T16:14:26.908Z,57538.72
2022-12-18T16:17:02.196Z,57507.66
2022-12-18T16:19:29.334Z,57501.44
2022-12-18T16:21:57.301Z,57522.16
2022-12-18T16:24:26.097Z,57518.00
2022-12-18T16:26:52.977Z,57532.50
2022-12-18T16:29:20.018Z,57528.34
2022-12-18T16:31:48.605Z,57474.56
2022-12-18T16:34:28.865Z,57520.09
2022-12-18T16:37:05.314Z,57528.34
2022-12-18T16:39:33.973Z,57464.19
2022-12-18T16:42:00.533Z,57518.00
2022-12-18T16:44:29.115Z,57468.34
2022-12-18T16:46:55.564Z,57489.03
2022-12-18T16:49:22.358Z,57774.63
2022-12-18T16:51:48.931Z,57582.16
2022-12-18T16:54:19.065Z,57505.59
2022-12-18T16:56:49.661Z,57515.94
2022-12-18T16:59:17.707Z,57476.63
2022-12-18T17:01:44.636Z,57489.03
2022-12-18T17:04:11.356Z,57464.19
2022-12-18T17:06:48.619Z,57460.06
2022-12-18T17:09:16.973Z,57484.91
2022-12-18T17:11:45.336Z,57468.34
2022-12-18T17:14:16.530Z,57499.38
2022-12-18T17:16:43.437Z,57482.81
2022-12-18T17:19:15.310Z,57476.63
2022-12-18T17:21:50.510Z,57505.59
2022-12-18T17:24:17.515Z,57501.44
2022-12-18T17:26:45.628Z,57522.16
2022-12-18T17:29:20.788Z,57518.00
2022-12-18T17:31:49.717Z,57518.00
2022-12-18T17:34:16.372Z,57524.22
2022-12-18T17:36:44.120Z,57497.31
2022-12-18T17:39:18.204Z,57491.09
2022-12-18T17:41:44.632Z,57437.31
2022-12-18T17:44:12.580Z,57507.66
2022-12-18T17:46:39.794Z,57426.94
2022-12-18T17:49:06.375Z,57445.56
2022-12-18T17:51:33.029Z,57482.81
2022-12-18T17:53:59.839Z,57476.63
2022-12-18T17:56:26.368Z,57501.44
2022-12-18T17:58:53.578Z,57687.72
2022-12-18T18:01:23.460Z,57501.44
2022-12-18T18:03:53.535Z,57437.31
2022-12-18T18:06:20.588Z,57449.72
2022-12-18T18:20:04.194Z,57451.78
2022-12-18T18:22:30.636Z,57482.81
2022-12-18T18:24:57.234Z,57737.38
2022-12-18T18:27:23.756Z,57503.53
2022-12-18T18:29:50.239Z,57491.09
2022-12-18T18:32:16.636Z,57420.75
2022-12-18T18:34:43.129Z,57513.88
2022-12-18T18:37:10.484Z,57418.66
2022-12-18T18:39:36.931Z,57443.50
2022-12-18T18:42:03.541Z,57429.03
2022-12-18T18:44:30.048Z,57439.38
2022-12-18T18:46:57.802Z,57460.06
2022-12-18T18:49:27.222Z,57476.63
2022-12-18T18:51:54.789Z,57426.94
2022-12-18T18:54:21.344Z,57493.19
2022-12-18T18:59:37.224Z,57418.66
2022-12-18T19:02:04.270Z,57472.47
2022-12-18T19:04:32.729Z,57484.91
2022-12-18T19:06:59.202Z,57648.41
2022-12-18T19:09:25.971Z,57460.06
2022-12-18T19:12:12.032Z,57464.19
2022-12-18T19:14:38.547Z,57451.78
2022-12-18T19:17:04.977Z,57472.47
2022-12-18T19:19:32.108Z,57495.25
2022-12-18T19:21:58.566Z,57787.06
2022-12-18T19:24:25.990Z,57422.81
2022-12-18T19:26:52.428Z,57464.19
2022-12-18T19:29:22.904Z,57443.50
2022-12-18T19:31:49.565Z,57443.50
2022-12-18T19:34:16.079Z,57453.84
2022-12-18T19:36:42.549Z,57422.81
2022-12-18T19:39:11.566Z,57654.59
2022-12-18T19:41:38.129Z,57455.94
2022-12-18T19:44:07.705Z,57476.63
2022-12-18T19:46:34.995Z,57476.63
2022-12-18T19:49:01.513Z,57379.34
2022-12-18T19:51:29.593Z,57443.50
2022-12-18T19:53:59.361Z,57474.56
2022-12-18T19:56:30.607Z,57449.72
2022-12-18T19:58:57.187Z,57466.28
2022-12-18T20:01:24.634Z,57747.72
2022-12-18T20:03:52.991Z,57478.69
2022-12-18T20:06:34.656Z,57472.47
2022-12-18T20:09:03.962Z,57724.97
2022-12-18T20:11:30.972Z,57445.56
2022-12-18T20:14:01.270Z,57499.38
2022-12-18T20:16:28.111Z,57493.19
2022-12-18T20:18:54.816Z,57445.56
2022-12-18T20:21:21.269Z,57722.91
2022-12-18T20:23:47.707Z,57482.81
2022-12-18T20:26:14.285Z,57520.09
2022-12-18T20:28:40.839Z,57431.09
2022-12-18T20:31:13.811Z,57472.47
2022-12-18T20:33:41.655Z,57453.84
2022-12-18T20:36:12.546Z,57509.72
2022-12-18T20:38:39.542Z,57435.22
2022-12-18T20:41:15.244Z,57499.38
2022-12-18T20:43:42.266Z,57445.56
2022-12-18T20:46:10.661Z,57439.38
2022-12-18T20:48:40.168Z,57499.38
2022-12-18T20:51:09.539Z,57662.88
2022-12-18T20:53:36.315Z,57497.31
2022-12-18T20:56:18.901Z,57458.00
2022-12-18T20:58:54.600Z,57509.72
2022-12-18T21:01:23.278Z,57472.47
2022-12-18T21:03:50.401Z,57420.75
2022-12-18T21:06:18.318Z,57476.63
2022-12-18T21:08:46.019Z,57524.22
2022-12-18T21:11:40.323Z,57453.84
2022-12-18T21:14:11.354Z,57484.91
2022-12-18T21:16:37.695Z,57478.69
2022-12-18T21:19:04.134Z,57532.50
2022-12-18T21:21:30.631Z,57507.66
2022-12-18T21:24:02.332Z,57460.06
2022-12-18T21:26:28.945Z,57466.28
2022-12-18T21:28:57.440Z,57458.00
2022-12-18T21:31:25.821Z,57495.25
2022-12-18T21:33:54.591Z,57412.47
2022-12-18T21:36:26.787Z,57696.00
2022-12-18T21:38:56.394Z,57460.06
2022-12-18T21:41:42.365Z,57818.09
2022-12-18T21:44:11.400Z,57468.34
2022-12-18T21:46:39.630Z,57698.06
2022-12-18T21:49:07.502Z,57501.44
2022-12-18T21:51:34.648Z,57507.66
2022-12-18T21:54:01.080Z,57466.28
2022-12-18T21:56:43.704Z,57484.91
2022-12-18T21:59:10.473Z,57414.53
2022-12-18T22:01:37.490Z,57455.94
2022-12-18T22:04:04.381Z,57462.13
2022-12-18T22:06:30.895Z,57356.59
2022-12-18T22:08:57.559Z,57524.22
2022-12-18T22:11:24.008Z,57449.72
2022-12-18T22:13:50.559Z,57518.00
2022-12-18T22:16:17.042Z,57433.16
2022-12-18T22:18:43.537Z,57464.19
2022-12-18T22:21:34.413Z,57507.66
2022-12-18T22:24:03.092Z,57489.03
2022-12-18T22:26:35.141Z,57505.59
2022-12-18T22:29:23.372Z,57836.72
2022-12-18T22:31:50.052Z,57507.66
2022-12-18T22:34:20.584Z,57540.78
2022-12-18T22:36:50.190Z,57460.06
2022-12-18T22:39:22.952Z,57505.59
2022-12-18T22:41:49.886Z,57491.09
2022-12-18T22:44:18.082Z,57518.00
2022-12-18T22:47:00.668Z,57511.81
2022-12-18T22:49:32.263Z,57495.25
2022-12-18T22:52:00.230Z,57538.72
2022-12-18T22:54:26.876Z,57497.31
2022-12-18T22:56:53.279Z,57480.75
2022-12-18T22:59:22.823Z,57499.38
2022-12-18T23:01:50.699Z,57546.97
2022-12-18T23:04:20.679Z,57480.75
2022-12-18T23:06:47.595Z,57538.72
2022-12-18T23:09:19.176Z,57530.44
2022-12-18T23:11:46.274Z,57515.94
2022-12-18T23:14:13.065Z,57520.09
2022-12-18T23:16:39.503Z,57472.47
2022-12-18T23:19:06.161Z,57518.00
2022-12-18T23:21:32.639Z,57520.09
2022-12-18T23:24:02.743Z,57414.53
2022-12-18T23:26:29.344Z,57538.72
2022-12-18T23:28:56.679Z,57534.56
2022-12-18T23:31:25.909Z,57540.78
2022-12-18T23:33:53.710Z,57549.06
2022-12-18T23:36:21.150Z,57532.50
2022-12-18T23:38:52.383Z,57555.25
2022-12-18T23:41:20.812Z,57544.91
2022-12-18T23:43:47.244Z,57515.94
2022-12-18T23:46:27.124Z,57538.72
2022-12-18T23:48:56.740Z,57590.44
2022-12-18T23:51:25.183Z,57559.41
2022-12-18T23:53:53.388Z,57540.78
2022-12-18T23:56:19.942Z,57563.53
2022-12-18T23:58:47.092Z,57559.41
